Cee Vee, Texas
Current Conditions -  °F | °C
As of 5:53 AM on Thursday 23 Oct 2014 (Local Time) from KCDS Reporting Station
Moderate Fog Moderate Fog  
Wind Chill: 58°   Ceiling: 200
Heat Index: 58°   Visibility: 0.25mi
Dew Point: 56°   Wind: 3mph
Humidity: 93%   Direction: 180°S
Pressure: 30.1"   Gusts: NA
Location:  34.22°N, 100.45°W
Report Text: KCDS 231053Z AUTO 18003KT 1/4SM FG VV002 14/13 A3010 RMK AO2 SLP180 T01440133
Loading
Personal Weather Stations






























Interactive Weather Map
Tropical Storm Tracking
New forecast layout! Learn more

10-Day Weather Forecast

Advertisements
Track Severe Weather on mobile